Al Cenac — WDD5445 — position and weather

sailwx.info

Track history (hours):
 
Tides and Currents Weather Stations Pressure Air Temp Water Temp Dewpoint Dewpoint Depression Visibility Wind Speed Wind Dir Waves Ship Positions

Al Cenac

Owner: Caillou Island Towing Co, Inc., Houma, LA. More information available from US FCC via Universal Licensing System and Coast Guard Vessel Documentation Center.

Last reported at 2018-Apr-24 07:00 UTC. Time now 2018-Apr-24 07:07 UTC.
Position N 40°39' W 074°05'.

; draft 10 m.

Type: Tug. MMSI: 367158530.

Date/timePositionNaut miles runAvg speedWind from/ knotsBaromVisibWave heightAir tempDewpointWater temp
2018-Apr-24 07:00N 40°39' W 074°05'4 0.4
2018-Apr-23 20:58N 40°39' W 074°10'2 0.1
2018-Apr-23 01:03N 40°39' W 074°08'0 7.0
2018-Apr-23 01:00N 40°39' W 074°07'1 0.9
2018-Apr-23 00:24N 40°39' W 074°07'1 0.2
2018-Apr-22 17:16N 40°39' W 074°08'1 4.9
2018-Apr-22 16:58N 40°39' W 074°10'0 0.0
2018-Apr-22 16:27N 40°39' W 074°10'2 3.3
2018-Apr-22 15:59N 40°39' W 074°08'0 0.0
2018-Apr-22 15:28N 40°39' W 074°08'0 0.0
2018-Apr-22 15:00N 40°39' W 074°08'0 0.0
2018-Apr-22 14:28N 40°39' W 074°08'0 0.0
2018-Apr-22 13:59N 40°39' W 074°08'0 0.0
2018-Apr-22 13:30N 40°39' W 074°08'0 0.0
2018-Apr-22 12:59N 40°39' W 074°08'0 0.0
2018-Apr-22 12:30N 40°39' W 074°08'0 0.0
2018-Apr-22 11:59N 40°39' W 074°08'0 0.0
2018-Apr-22 11:30N 40°39' W 074°08'0 0.0
2018-Apr-22 11:00N 40°39' W 074°08'0 0.0
2018-Apr-22 10:30N 40°39' W 074°08'0 0.0
2018-Apr-22 10:01N 40°39' W 074°08'0 0.0
2018-Apr-22 09:30N 40°39' W 074°08'0 0.0
2018-Apr-22 09:00N 40°39' W 074°08'0 0.0
2018-Apr-22 08:30N 40°39' W 074°08'0 0.0
2018-Apr-22 08:00N 40°39' W 074°08'0 0.0
2018-Apr-22 07:30N 40°39' W 074°08'0 0.0
2018-Apr-22 07:00N 40°39' W 074°08'0 0.0
2018-Apr-22 06:30N 40°39' W 074°08'0 0.8
2018-Apr-22 06:00N 40°39' W 074°07'2 3.7
2018-Apr-22 05:30N 40°39' W 074°05'0 0.2
2018-Apr-22 05:00N 40°39' W 074°05'0 0.1
2018-Apr-22 04:30N 40°39' W 074°05'0 0.0
2018-Apr-22 04:00N 40°39' W 074°05'0 0.9
2018-Apr-22 03:30N 40°39' W 074°06'3 6.7
2018-Apr-22 03:00N 40°39' W 074°10'0 0.0
2018-Apr-22 02:30N 40°39' W 074°10'0 0.0
2018-Apr-22 02:00N 40°39' W 074°10'0 0.0
2018-Apr-22 01:30N 40°39' W 074°10'0 0.0
2018-Apr-22 01:00N 40°39' W 074°10'0 0.0
2018-Apr-22 00:30N 40°39' W 074°10'2 4.6
2018-Apr-22 00:00N 40°39' W 074°07'1 1.6
2018-Apr-21 23:28N 40°39' W 074°08'1 3.0
2018-Apr-21 23:00N 40°39' W 074°10'2 3.0
2018-Apr-21 22:30N 40°38' W 074°08'0 0.0
2018-Apr-21 22:00N 40°38' W 074°08'0 0.0
2018-Apr-21 21:30N 40°38' W 074°08'0 0.0
2018-Apr-21 20:59N 40°38' W 074°08'0 0.0
2018-Apr-21 20:29N 40°38' W 074°08'0 0.0
2018-Apr-21 20:00N 40°38' W 074°08'0 0.0
2018-Apr-21 19:28N 40°38' W 074°08'0 0.0
2018-Apr-21 19:00N 40°38' W 074°08'0 0.0
2018-Apr-21 18:27N 40°38' W 074°08'0 0.0
2018-Apr-21 17:59N 40°38' W 074°08'0 0.0
2018-Apr-21 17:29N 40°38' W 074°08'0 0.0
2018-Apr-21 16:59N 40°38' W 074°08'0 0.0
2018-Apr-21 16:30N 40°38' W 074°08'2 4.1
2018-Apr-21 16:00N 40°39' W 074°05'4 8.2
2018-Apr-21 15:30N 40°42' W 074°02'4 8.2
2018-Apr-21 15:00N 40°46' W 073°60'0 0.2
2018-Apr-21 14:30N 40°46' W 074°00'0 0.1
2018-Apr-21 13:58N 40°46' W 074°00'0 0.0
2018-Apr-21 13:30N 40°46' W 074°00'0 0.0
2018-Apr-21 13:00N 40°46' W 074°00'0 0.0
2018-Apr-21 12:30N 40°46' W 074°00'0 0.0
2018-Apr-21 11:59N 40°46' W 074°00'0 0.5
2018-Apr-21 11:30N 40°46' W 074°00'0 0.1
2018-Apr-21 11:00N 40°46' W 074°00'0 0.8
2018-Apr-21 10:30N 40°46' W 074°00'3 6.0
2018-Apr-21 10:00N 40°43' W 074°01'3 6.4
2018-Apr-21 09:30N 40°40' W 074°03'4 7.8
2018-Apr-21 09:00N 40°39' W 074°08'0 0.0
2018-Apr-21 08:30N 40°39' W 074°08'0 0.0
2018-Apr-21 08:00N 40°39' W 074°08'0 0.0
2018-Apr-21 07:30N 40°39' W 074°08'0 0.0
2018-Apr-21 07:00N 40°39' W 074°08'0 0.0
2018-Apr-21 06:30N 40°39' W 074°08'0 0.0
2018-Apr-21 06:00N 40°39' W 074°08'0 0.0
2018-Apr-21 05:30N 40°39' W 074°08'0 0.0
2018-Apr-21 05:00N 40°39' W 074°08'0 0.0
2018-Apr-21 04:30N 40°39' W 074°08'0 0.0
2018-Apr-21 04:00N 40°39' W 074°08'0 0.0
2018-Apr-21 03:30N 40°39' W 074°08'0 0.0
2018-Apr-21 03:00N 40°39' W 074°08'0 0.0
2018-Apr-21 02:30N 40°39' W 074°08'0 0.0
2018-Apr-21 02:00N 40°39' W 074°08'0 0.0
2018-Apr-21 01:30N 40°39' W 074°08'0 0.0
2018-Apr-21 01:00N 40°39' W 074°08'0 0.0
2018-Apr-21 00:30N 40°39' W 074°08'0 0.0
2018-Apr-21 00:00N 40°39' W 074°08'0 0.0
2018-Apr-20 23:30N 40°39' W 074°08'1 2.4
2018-Apr-20 23:00N 40°39' W 074°06'1 2.0
2018-Apr-20 22:30N 40°39' W 074°05'1 1.7
2018-Apr-20 22:00N 40°39' W 074°04'0 0.7
2018-Apr-20 21:30N 40°39' W 074°04'5 8.5
2018-Apr-20 20:58N 40°39' W 074°10'2 3.0
2018-Apr-20 20:27N 40°39' W 074°08'0 0.0
2018-Apr-20 18:56N 40°39' W 074°08'2 5.8
2018-Apr-20 18:30N 40°39' W 074°05'1 1.1
2018-Apr-20 18:00N 40°40' W 074°04'0 0.1
2018-Apr-20 17:30N 40°40' W 074°04'2 3.0
2018-Apr-20 17:00N 40°39' W 074°06'0 0.8
2018-Apr-20 16:30N 40°39' W 074°06'2 3.6
2018-Apr-20 16:00N 40°39' W 074°08'0 0.0
2018-Apr-20 15:30N 40°39' W 074°08'0 0.0
2018-Apr-20 14:59N 40°39' W 074°08'0 0.0
2018-Apr-20 14:29N 40°39' W 074°08'0 0.0
2018-Apr-20 13:58N 40°39' W 074°08'0 0.0
2018-Apr-20 13:24N 40°39' W 074°08'0 0.0
2018-Apr-20 11:42N 40°39' W 074°08'0 0.0
2018-Apr-20 11:26N 40°39' W 074°08'1 2.0
2018-Apr-20 11:00N 40°39' W 074°07'0 0.8
2018-Apr-20 10:30N 40°39' W 074°06'0 0.4
2018-Apr-20 10:00N 40°39' W 074°06'1 1.3
2018-Apr-20 09:30N 40°39' W 074°05'2 3.9
2018-Apr-20 09:00N 40°39' W 074°08'0 0.0
2018-Apr-20 08:30N 40°39' W 074°08'0 0.0
2018-Apr-20 08:00N 40°39' W 074°08'0 0.0
2018-Apr-20 07:30N 40°39' W 074°08'2 4.7
2018-Apr-20 07:00N 40°39' W 074°11'4 6.8
2018-Apr-20 06:27N 40°35' W 074°13'0 0.1
2018-Apr-20 05:59N 40°35' W 074°12'3 5.3
2018-Apr-20 05:30N 40°38' W 074°12'3 6.7
2018-Apr-20 04:59N 40°39' W 074°08'3 6.5
2018-Apr-20 04:30N 40°39' W 074°04'0 0.8
2018-Apr-20 04:00N 40°39' W 074°04'3 5.5
2018-Apr-20 03:30N 40°38' W 074°08'0 0.0
2018-Apr-20 03:00N 40°38' W 074°08'0 0.0
2018-Apr-20 02:30N 40°38' W 074°08'0 0.0
2018-Apr-20 01:59N 40°38' W 074°08'0 0.0
2018-Apr-20 01:30N 40°38' W 074°08'0 0.0
2018-Apr-20 01:00N 40°38' W 074°08'0 0.0
2018-Apr-20 00:30N 40°38' W 074°08'0 0.0
2018-Apr-20 00:00N 40°38' W 074°08'0 0.0
2018-Apr-19 23:30N 40°38' W 074°08'2 3.0
2018-Apr-19 22:55N 40°39' W 074°10'3 6.6
2018-Apr-19 22:30N 40°37' W 074°12'0 0.2
2018-Apr-19 21:57N 40°36' W 074°12'1 1.5
2018-Apr-19 21:30N 40°36' W 074°12'0 0.0
2018-Apr-19 21:00N 40°36' W 074°12'2 3.7
2018-Apr-19 20:30N 40°38' W 074°12'2 3.9
2018-Apr-19 20:00N 40°39' W 074°10'0 0.6
2018-Apr-19 19:30N 40°39' W 074°10'3 5.2
2018-Apr-19 18:59N 40°39' W 074°06'2 5.1
2018-Apr-19 18:30N 40°40' W 074°03'4 8.0
2018-Apr-19 18:00N 40°42' W 073°59'4 7.4
2018-Apr-19 17:30N 40°46' W 073°57'3 5.0
2018-Apr-19 16:56N 40°48' W 073°55'0 0.0
2018-Apr-19 13:20N 40°48' W 073°55'0 0.0
2018-Apr-19 13:00N 40°48' W 073°55'0 0.0
2018-Apr-19 12:30N 40°48' W 073°55'0 0.0
2018-Apr-19 11:59N 40°48' W 073°55'0 0.0
2018-Apr-19 11:30N 40°48' W 073°55'0 0.0
2018-Apr-19 11:00N 40°48' W 073°55'0 0.0
2018-Apr-19 10:30N 40°48' W 073°55'0 0.0
2018-Apr-19 10:00N 40°48' W 073°55'0 0.0
2018-Apr-19 05:29N 40°48' W 073°55'2 5.0
2018-Apr-19 05:00N 40°46' W 073°57'4 7.5
2018-Apr-19 04:30N 40°43' W 073°59'4 7.8
2018-Apr-19 04:00N 40°40' W 074°02'4 7.6
2018-Apr-19 03:30N 40°39' W 074°07'2 4.3
2018-Apr-19 03:00N 40°39' W 074°10'0 0.0
2018-Apr-19 02:30N 40°39' W 074°10'0 0.0
2018-Apr-19 02:00N 40°39' W 074°10'0 0.0
2018-Apr-19 01:30N 40°39' W 074°10'0 0.0
2018-Apr-19 01:00N 40°39' W 074°10'0 0.0
2018-Apr-19 00:30N 40°39' W 074°10'0 0.0
2018-Apr-19 00:00N 40°39' W 074°10'0 0.1
2018-Apr-18 23:30N 40°39' W 074°10'2 3.6
2018-Apr-18 23:00N 40°38' W 074°12'1 2.2
2018-Apr-18 22:30N 40°37' W 074°12'2 1.6
2018-Apr-18 21:29N 40°35' W 074°13'1 1.4
2018-Apr-18 21:00N 40°36' W 074°12'0 0.0
2018-Apr-18 20:30N 40°36' W 074°12'0 0.0
2018-Apr-18 20:00N 40°36' W 074°12'0 0.0
2018-Apr-18 19:30N 40°36' W 074°12'0 0.0
2018-Apr-18 19:00N 40°36' W 074°12'0 0.0
2018-Apr-18 18:30N 40°36' W 074°12'0 0.0
2018-Apr-18 18:00N 40°36' W 074°12'0 0.0
2018-Apr-18 17:30N 40°36' W 074°12'1 2.1
2018-Apr-18 17:00N 40°37' W 074°12'1 2.0
2018-Apr-18 16:30N 40°38' W 074°12'0 0.0
2018-Apr-18 15:58N 40°38' W 074°12'0 0.0
2018-Apr-18 15:30N 40°38' W 074°12'0 0.0
2018-Apr-18 14:58N 40°38' W 074°12'0 0.0
2018-Apr-18 14:30N 40°38' W 074°12'2 5.1
2018-Apr-18 14:00N 40°39' W 074°09'1 2.1
2018-Apr-18 13:30N 40°38' W 074°08'0 0.0
2018-Apr-18 13:00N 40°38' W 074°08'0 0.0
2018-Apr-18 12:29N 40°38' W 074°08'0 0.0
2018-Apr-18 12:00N 40°38' W 074°08'0 0.0
2018-Apr-18 11:30N 40°38' W 074°08'0 0.0
2018-Apr-18 10:58N 40°38' W 074°08'0 0.0
2018-Apr-18 10:30N 40°38' W 074°08'0 0.0
2018-Apr-18 10:00N 40°38' W 074°08'0 0.0
2018-Apr-18 09:30N 40°38' W 074°08'0 0.0
2018-Apr-18 09:00N 40°38' W 074°08'0 0.0
2018-Apr-18 08:30N 40°38' W 074°08'0 0.0
2018-Apr-18 08:00N 40°38' W 074°08'0 0.0
2018-Apr-18 07:30N 40°38' W 074°08'0 0.0
2018-Apr-18 07:00N 40°38' W 074°08'0 0.0
2018-Apr-18 06:30N 40°38' W 074°08'0 0.0
2018-Apr-18 06:00N 40°38' W 074°08'0 0.0
2018-Apr-18 05:30N 40°38' W 074°08'0 0.0
2018-Apr-18 05:00N 40°38' W 074°08'0 0.0
2018-Apr-18 04:28N 40°38' W 074°08'0 0.0
2018-Apr-18 04:00N 40°38' W 074°08'0 0.0
2018-Apr-18 03:30N 40°38' W 074°08'0 0.0
2018-Apr-18 03:00N 40°38' W 074°08'0 0.0
2018-Apr-18 02:30N 40°38' W 074°08'0 0.0
2018-Apr-18 02:00N 40°38' W 074°08'0 0.0
2018-Apr-18 01:30N 40°38' W 074°08'0 0.0
2018-Apr-18 00:59N 40°38' W 074°08'0 0.0
2018-Apr-18 00:30N 40°38' W 074°08'0 0.0
2018-Apr-18 00:00N 40°38' W 074°08'0 0.0
2018-Apr-17 23:30N 40°38' W 074°08'0 0.1
2018-Apr-17 23:00N 40°39' W 074°08'3 6.5
2018-Apr-17 22:29N 40°38' W 074°12'3 5.3
2018-Apr-17 22:00N 40°35' W 074°13'1 2.6
2018-Apr-17 21:29N 40°37' W 074°12'3 6.5
2018-Apr-17 21:00N 40°39' W 074°09'1 2.3
2018-Apr-17 20:29N 40°38' W 074°08'0 0.0
2018-Apr-17 20:00N 40°38' W 074°08'1 2.6
2018-Apr-17 19:26N 40°39' W 074°10'2 3.7
2018-Apr-17 19:00N 40°38' W 074°12'0 0.0
2018-Apr-17 18:30N 40°38' W 074°12'0 0.0
2018-Apr-17 18:00N 40°38' W 074°12'0 0.0
2018-Apr-17 17:29N 40°38' W 074°12'0 0.0
2018-Apr-17 17:00N 40°38' W 074°12'3 5.7
2018-Apr-17 16:24N 40°35' W 074°12'0 0.2
2018-Apr-17 15:56N 40°35' W 074°13'0 0.3
2018-Apr-17 15:29N 40°35' W 074°12'2 0.5
2018-Apr-17 11:58N 40°33' W 074°14'3 7.2
2018-Apr-17 11:30N 40°37' W 074°12'3 5.5
2018-Apr-17 11:00N 40°38' W 074°09'1 2.4
2018-Apr-17 10:29N 40°38' W 074°08'0 0.0
2018-Apr-17 10:00N 40°38' W 074°08'0 0.0
2018-Apr-17 09:29N 40°38' W 074°08'0 0.0
2018-Apr-17 09:00N 40°38' W 074°08'0 0.0
2018-Apr-17 08:30N 40°38' W 074°08'0 0.0
2018-Apr-17 08:00N 40°38' W 074°08'0 0.0
2018-Apr-17 07:30N 40°38' W 074°08'0 0.0
2018-Apr-17 07:00N 40°38' W 074°08'0 0.0
2018-Apr-17 06:30N 40°38' W 074°08'0 0.0
2018-Apr-17 06:00N 40°38' W 074°08'0 0.0
2018-Apr-17 05:30N 40°38' W 074°08'0 0.0
2018-Apr-17 05:00N 40°38' W 074°08'0 0.0
2018-Apr-17 04:30N 40°38' W 074°08'0 0.3
2018-Apr-17 03:58N 40°39' W 074°08'4 7.9
2018-Apr-17 03:29N 40°42' W 074°07'2 4.0
2018-Apr-17 03:00N 40°44' W 074°06'2 4.4
2018-Apr-17 02:30N 40°42' W 074°07'3 5.4
2018-Apr-17 02:00N 40°40' W 074°09'0 0.9
2018-Apr-17 01:29N 40°39' W 074°09'2 3.5
2018-Apr-17 01:00N 40°39' W 074°07'1 2.1
2018-Apr-17 00:30N 40°38' W 074°08'0 0.0
2018-Apr-16 23:59N 40°38' W 074°08'0 0.0
2018-Apr-16 23:30N 40°38' W 074°08'0 0.0
2018-Apr-16 23:00N 40°38' W 074°08'0 0.0
2018-Apr-16 22:30N 40°38' W 074°08'0 0.0
2018-Apr-16 22:00N 40°38' W 074°08'0 0.0
2018-Apr-16 21:30N 40°38' W 074°08'0 0.0
2018-Apr-16 21:00N 40°38' W 074°08'0 0.0
2018-Apr-16 20:30N 40°38' W 074°08'0 0.0
2018-Apr-16 19:59N 40°38' W 074°08'0 0.0
2018-Apr-16 19:30N 40°38' W 074°08'0 0.0
2018-Apr-16 19:00N 40°38' W 074°08'0 0.0
2018-Apr-16 18:30N 40°38' W 074°08'0 0.0
2018-Apr-16 18:00N 40°38' W 074°08'0 0.0
2018-Apr-16 17:29N 40°38' W 074°08'0 0.0
2018-Apr-16 17:00N 40°38' W 074°08'0 0.0
2018-Apr-16 16:30N 40°38' W 074°08'0 0.0
2018-Apr-16 16:00N 40°38' W 074°08'0 0.0
2018-Apr-16 15:30N 40°38' W 074°08'0 0.0
2018-Apr-16 15:00N 40°38' W 074°08'0 0.0
2018-Apr-16 14:30N 40°38' W 074°08'0 0.0
2018-Apr-16 14:00N 40°38' W 074°08'0 0.0
2018-Apr-16 13:30N 40°38' W 074°08'1 1.6
2018-Apr-16 12:59N 40°39' W 074°09'1 2.3
2018-Apr-16 12:30N 40°39' W 074°10'0 0.2
2018-Apr-16 11:58N 40°39' W 074°10'0 0.0
2018-Apr-16 11:30N 40°39' W 074°10'0 0.0
2018-Apr-16 11:00N 40°39' W 074°10'0 0.0
2018-Apr-16 10:30N 40°39' W 074°10'1 1.6
2018-Apr-16 10:00N 40°38' W 074°09'3 6.8
2018-Apr-16 09:30N 40°39' W 074°04'2 3.7
2018-Apr-16 09:00N 40°37' W 074°03'0 0.0
2018-Apr-16 08:30N 40°37' W 074°03'0 0.0
2018-Apr-16 08:00N 40°37' W 074°03'0 0.0
2018-Apr-16 07:30N 40°37' W 074°03'0 0.0
2018-Apr-16 07:00N 40°37' W 074°03'0 0.0
2018-Apr-16 06:30N 40°37' W 074°03'0 0.0
2018-Apr-16 06:00N 40°37' W 074°03'0 0.0
2018-Apr-16 05:30N 40°37' W 074°03'0 0.1
2018-Apr-16 05:00N 40°37' W 074°04'0 0.0
2018-Apr-16 04:30N 40°37' W 074°04'0 0.0
2018-Apr-16 04:00N 40°37' W 074°04'0 0.1
2018-Apr-16 03:30N 40°37' W 074°04'0 0.1
2018-Apr-16 03:00N 40°37' W 074°04'0 0.2
2018-Apr-16 02:30N 40°38' W 074°03'0 0.0
2018-Apr-16 02:00N 40°38' W 074°03'0 0.0
2018-Apr-16 01:28N 40°38' W 074°03'0 0.0
2018-Apr-16 01:00N 40°38' W 074°03'0 0.0
2018-Apr-16 00:30N 40°38' W 074°04'0 0.0
2018-Apr-16 00:00N 40°38' W 074°04'0 0.0
2018-Apr-15 23:30N 40°38' W 074°04'0 0.0
2018-Apr-15 23:00N 40°38' W 074°04'0 0.1
2018-Apr-15 22:29N 40°38' W 074°03'0 0.1
2018-Apr-15 22:00N 40°38' W 074°04'0 0.1
2018-Apr-15 21:30N 40°37' W 074°04'0 0.3
2018-Apr-15 21:00N 40°37' W 074°03'0 0.0
2018-Apr-15 20:30N 40°37' W 074°03'0 0.0
2018-Apr-15 20:00N 40°37' W 074°04'0 0.0
2018-Apr-15 19:30N 40°37' W 074°03'0 0.0
2018-Apr-15 19:00N 40°37' W 074°03'0 0.0
2018-Apr-15 18:30N 40°37' W 074°03'0 0.1
2018-Apr-15 18:00N 40°37' W 074°03'0 0.0
2018-Apr-15 17:30N 40°37' W 074°03'0 0.5
2018-Apr-15 17:00N 40°38' W 074°04'4 6.5
2018-Apr-15 16:26N 40°39' W 074°08'3 5.9
2018-Apr-15 16:00N 40°41' W 074°08'1 2.5
2018-Apr-15 15:30N 40°42' W 074°07'0 0.3
2018-Apr-15 14:59N 40°42' W 074°07'2 3.7
2018-Apr-15 14:30N 40°44' W 074°06'2 3.9
2018-Apr-15 14:00N 40°42' W 074°07'3 5.4
2018-Apr-15 13:30N 40°40' W 074°08'1 2.7
2018-Apr-15 13:00N 40°38' W 074°08'0 0.0
2018-Apr-15 12:30N 40°38' W 074°08'0 0.0
2018-Apr-15 12:00N 40°38' W 074°08'0 0.0
2018-Apr-15 11:30N 40°38' W 074°08'0 0.0
2018-Apr-15 11:00N 40°38' W 074°08'0 0.0
2018-Apr-15 10:30N 40°38' W 074°08'0 0.0
2018-Apr-15 10:00N 40°38' W 074°08'0 0.0
2018-Apr-15 09:30N 40°38' W 074°08'0 0.0
2018-Apr-15 09:00N 40°38' W 074°08'0 0.0
2018-Apr-15 08:30N 40°38' W 074°08'0 0.0
2018-Apr-15 08:00N 40°38' W 074°08'0 0.0
2018-Apr-15 07:30N 40°38' W 074°08'0 0.0
2018-Apr-15 07:00N 40°38' W 074°08'0 0.0
2018-Apr-15 06:30N 40°38' W 074°08'0 0.0
2018-Apr-15 06:00N 40°38' W 074°08'0 0.0
2018-Apr-15 05:30N 40°38' W 074°08'0 0.0
2018-Apr-15 05:00N 40°38' W 074°08'0 0.0
2018-Apr-15 04:30N 40°38' W 074°08'0 0.0
2018-Apr-15 04:00N 40°38' W 074°08'0 0.0
2018-Apr-15 03:28N 40°38' W 074°08'0 0.0
2018-Apr-15 03:00N 40°38' W 074°08'0 0.0
2018-Apr-15 02:30N 40°38' W 074°08'0 0.0
2018-Apr-15 02:00N 40°38' W 074°08'0 0.0
2018-Apr-15 01:28N 40°38' W 074°08'0 0.0
2018-Apr-15 01:00N 40°38' W 074°08'0 0.0
2018-Apr-15 00:28N 40°38' W 074°08'0 0.0
2018-Apr-15 00:00N 40°38' W 074°08'2 4.5
2018-Apr-14 23:30N 40°39' W 074°05'2 4.6
2018-Apr-14 23:00N 40°38' W 074°08'0 0.0
2018-Apr-14 22:29N 40°38' W 074°08'0 0.0
2018-Apr-14 22:00N 40°38' W 074°08'0 0.0
2018-Apr-14 21:29N 40°38' W 074°08'0 0.0
2018-Apr-14 20:58N 40°38' W 074°08'0 0.0
2018-Apr-14 20:29N 40°38' W 074°08'0 0.0
2018-Apr-14 20:00N 40°38' W 074°08'0 0.0
2018-Apr-14 19:26N 40°38' W 074°08'0 0.0
2018-Apr-14 19:00N 40°38' W 074°08'0 0.0
2018-Apr-14 18:29N 40°38' W 074°08'0 0.0
2018-Apr-14 18:00N 40°38' W 074°08'0 0.0
2018-Apr-14 17:30N 40°38' W 074°08'0 0.0
2018-Apr-14 17:00N 40°38' W 074°08'0 0.0
2018-Apr-14 16:30N 40°38' W 074°08'0 0.0
2018-Apr-14 16:00N 40°38' W 074°08'0 0.0
2018-Apr-14 15:30N 40°38' W 074°08'0 0.0
2018-Apr-14 14:59N 40°38' W 074°08'0 0.0
2018-Apr-14 14:29N 40°38' W 074°08'0 0.0
2018-Apr-14 13:59N 40°38' W 074°08'0 0.3
2018-Apr-14 13:30N 40°39' W 074°08'4 7.2
2018-Apr-14 13:00N 40°40' W 074°03'4 7.7
2018-Apr-14 12:30N 40°43' W 074°01'3 5.7
2018-Apr-14 12:00N 40°46' W 074°00'0 0.7
2018-Apr-14 11:30N 40°46' W 073°60'0 0.6
2018-Apr-14 11:00N 40°47' W 073°60'2 3.7
2018-Apr-14 10:30N 40°45' W 074°01'4 8.4
2018-Apr-14 10:00N 40°41' W 074°02'4 7.1
2018-Apr-14 09:26N 40°39' W 074°07'1 2.0
2018-Apr-14 09:00N 40°38' W 074°08'0 0.0
2018-Apr-14 08:30N 40°38' W 074°08'0 0.0
2018-Apr-14 08:00N 40°38' W 074°08'0 0.0
2018-Apr-14 07:30N 40°38' W 074°08'0 0.0
2018-Apr-14 07:00N 40°38' W 074°08'  
Track history (hours):
 
Tides and Currents Weather Stations Pressure Air Temp Water Temp Dewpoint Dewpoint Depression Visibility Wind Speed Wind Dir Waves Ship Positions

Al Cenac

Owner: Caillou Island Towing Co, Inc., Houma, LA. More information available from US FCC via Universal Licensing System and Coast Guard Vessel Documentation Center.

Last reported at 2018-Apr-24 07:00 UTC. Time now 2018-Apr-24 07:07 UTC.
Position N 40°39' W 074°05'.

; draft 10 m.

Type: Tug. MMSI: 367158530.

Date/timePositionNaut miles runAvg speedWind from/ knotsBaromVisibWave heightAir tempDewpointWater temp
2018-Apr-24 07:00N 40°39' W 074°05'4 0.4
2018-Apr-23 20:58N 40°39' W 074°10'2 0.1
2018-Apr-23 01:03N 40°39' W 074°08'0 7.0
2018-Apr-23 01:00N 40°39' W 074°07'1 0.9
2018-Apr-23 00:24N 40°39' W 074°07'1 0.2
2018-Apr-22 17:16N 40°39' W 074°08'1 4.9
2018-Apr-22 16:58N 40°39' W 074°10'0 0.0
2018-Apr-22 16:27N 40°39' W 074°10'2 3.3
2018-Apr-22 15:59N 40°39' W 074°08'0 0.0
2018-Apr-22 15:28N 40°39' W 074°08'0 0.0
2018-Apr-22 15:00N 40°39' W 074°08'0 0.0
2018-Apr-22 14:28N 40°39' W 074°08'0 0.0
2018-Apr-22 13:59N 40°39' W 074°08'0 0.0
2018-Apr-22 13:30N 40°39' W 074°08'0 0.0
2018-Apr-22 12:59N 40°39' W 074°08'0 0.0
2018-Apr-22 12:30N 40°39' W 074°08'0 0.0
2018-Apr-22 11:59N 40°39' W 074°08'0 0.0
2018-Apr-22 11:30N 40°39' W 074°08'0 0.0
2018-Apr-22 11:00N 40°39' W 074°08'0 0.0
2018-Apr-22 10:30N 40°39' W 074°08'0 0.0
2018-Apr-22 10:01N 40°39' W 074°08'0 0.0
2018-Apr-22 09:30N 40°39' W 074°08'0 0.0
2018-Apr-22 09:00N 40°39' W 074°08'0 0.0
2018-Apr-22 08:30N 40°39' W 074°08'0 0.0
2018-Apr-22 08:00N 40°39' W 074°08'0 0.0
2018-Apr-22 07:30N 40°39' W 074°08'0 0.0
2018-Apr-22 07:00N 40°39' W 074°08'0 0.0
2018-Apr-22 06:30N 40°39' W 074°08'0 0.8
2018-Apr-22 06:00N 40°39' W 074°07'2 3.7
2018-Apr-22 05:30N 40°39' W 074°05'0 0.2
2018-Apr-22 05:00N 40°39' W 074°05'0 0.1
2018-Apr-22 04:30N 40°39' W 074°05'0 0.0
2018-Apr-22 04:00N 40°39' W 074°05'0 0.9
2018-Apr-22 03:30N 40°39' W 074°06'3 6.7
2018-Apr-22 03:00N 40°39' W 074°10'0 0.0
2018-Apr-22 02:30N 40°39' W 074°10'0 0.0
2018-Apr-22 02:00N 40°39' W 074°10'0 0.0
2018-Apr-22 01:30N 40°39' W 074°10'0 0.0
2018-Apr-22 01:00N 40°39' W 074°10'0 0.0
2018-Apr-22 00:30N 40°39' W 074°10'2 4.6
2018-Apr-22 00:00N 40°39' W 074°07'1 1.6
2018-Apr-21 23:28N 40°39' W 074°08'1 3.0
2018-Apr-21 23:00N 40°39' W 074°10'2 3.0
2018-Apr-21 22:30N 40°38' W 074°08'0 0.0
2018-Apr-21 22:00N 40°38' W 074°08'0 0.0
2018-Apr-21 21:30N 40°38' W 074°08'0 0.0
2018-Apr-21 20:59N 40°38' W 074°08'0 0.0
2018-Apr-21 20:29N 40°38' W 074°08'0 0.0
2018-Apr-21 20:00N 40°38' W 074°08'0 0.0
2018-Apr-21 19:28N 40°38' W 074°08'0 0.0
2018-Apr-21 19:00N 40°38' W 074°08'0 0.0
2018-Apr-21 18:27N 40°38' W 074°08'0 0.0
2018-Apr-21 17:59N 40°38' W 074°08'0 0.0
2018-Apr-21 17:29N 40°38' W 074°08'0 0.0
2018-Apr-21 16:59N 40°38' W 074°08'0 0.0
2018-Apr-21 16:30N 40°38' W 074°08'2 4.1
2018-Apr-21 16:00N 40°39' W 074°05'4 8.2
2018-Apr-21 15:30N 40°42' W 074°02'4 8.2
2018-Apr-21 15:00N 40°46' W 073°60'0 0.2
2018-Apr-21 14:30N 40°46' W 074°00'0 0.1
2018-Apr-21 13:58N 40°46' W 074°00'0 0.0
2018-Apr-21 13:30N 40°46' W 074°00'0 0.0
2018-Apr-21 13:00N 40°46' W 074°00'0 0.0
2018-Apr-21 12:30N 40°46' W 074°00'0 0.0
2018-Apr-21 11:59N 40°46' W 074°00'0 0.5
2018-Apr-21 11:30N 40°46' W 074°00'0 0.1
2018-Apr-21 11:00N 40°46' W 074°00'0 0.8
2018-Apr-21 10:30N 40°46' W 074°00'3 6.0
2018-Apr-21 10:00N 40°43' W 074°01'3 6.4
2018-Apr-21 09:30N 40°40' W 074°03'4 7.8
2018-Apr-21 09:00N 40°39' W 074°08'0 0.0
2018-Apr-21 08:30N 40°39' W 074°08'0 0.0
2018-Apr-21 08:00N 40°39' W 074°08'0 0.0
2018-Apr-21 07:30N 40°39' W 074°08'0 0.0
2018-Apr-21 07:00N 40°39' W 074°08'0 0.0
2018-Apr-21 06:30N 40°39' W 074°08'0 0.0
2018-Apr-21 06:00N 40°39' W 074°08'0 0.0
2018-Apr-21 05:30N 40°39' W 074°08'0 0.0
2018-Apr-21 05:00N 40°39' W 074°08'0 0.0
2018-Apr-21 04:30N 40°39' W 074°08'0 0.0
2018-Apr-21 04:00N 40°39' W 074°08'0 0.0
2018-Apr-21 03:30N 40°39' W 074°08'0 0.0
2018-Apr-21 03:00N 40°39' W 074°08'0 0.0
2018-Apr-21 02:30N 40°39' W 074°08'0 0.0
2018-Apr-21 02:00N 40°39' W 074°08'0 0.0
2018-Apr-21 01:30N 40°39' W 074°08'0 0.0
2018-Apr-21 01:00N 40°39' W 074°08'0 0.0
2018-Apr-21 00:30N 40°39' W 074°08'0 0.0
2018-Apr-21 00:00N 40°39' W 074°08'0 0.0
2018-Apr-20 23:30N 40°39' W 074°08'1 2.4
2018-Apr-20 23:00N 40°39' W 074°06'1 2.0
2018-Apr-20 22:30N 40°39' W 074°05'1 1.7
2018-Apr-20 22:00N 40°39' W 074°04'0 0.7
2018-Apr-20 21:30N 40°39' W 074°04'5 8.5
2018-Apr-20 20:58N 40°39' W 074°10'2 3.0
2018-Apr-20 20:27N 40°39' W 074°08'0 0.0
2018-Apr-20 18:56N 40°39' W 074°08'2 5.8
2018-Apr-20 18:30N 40°39' W 074°05'1 1.1
2018-Apr-20 18:00N 40°40' W 074°04'0 0.1
2018-Apr-20 17:30N 40°40' W 074°04'2 3.0
2018-Apr-20 17:00N 40°39' W 074°06'0 0.8
2018-Apr-20 16:30N 40°39' W 074°06'2 3.6
2018-Apr-20 16:00N 40°39' W 074°08'0 0.0
2018-Apr-20 15:30N 40°39' W 074°08'0 0.0
2018-Apr-20 14:59N 40°39' W 074°08'0 0.0
2018-Apr-20 14:29N 40°39' W 074°08'0 0.0
2018-Apr-20 13:58N 40°39' W 074°08'0 0.0
2018-Apr-20 13:24N 40°39' W 074°08'0 0.0
2018-Apr-20 11:42N 40°39' W 074°08'0 0.0
2018-Apr-20 11:26N 40°39' W 074°08'1 2.0
2018-Apr-20 11:00N 40°39' W 074°07'0 0.8
2018-Apr-20 10:30N 40°39' W 074°06'0 0.4
2018-Apr-20 10:00N 40°39' W 074°06'1 1.3
2018-Apr-20 09:30N 40°39' W 074°05'2 3.9
2018-Apr-20 09:00N 40°39' W 074°08'0 0.0
2018-Apr-20 08:30N 40°39' W 074°08'0 0.0
2018-Apr-20 08:00N 40°39' W 074°08'0 0.0
2018-Apr-20 07:30N 40°39' W 074°08'2 4.7
2018-Apr-20 07:00N 40°39' W 074°11'4 6.8
2018-Apr-20 06:27N 40°35' W 074°13'0 0.1
2018-Apr-20 05:59N 40°35' W 074°12'3 5.3
2018-Apr-20 05:30N 40°38' W 074°12'3 6.7
2018-Apr-20 04:59N 40°39' W 074°08'3 6.5
2018-Apr-20 04:30N 40°39' W 074°04'0 0.8
2018-Apr-20 04:00N 40°39' W 074°04'3 5.5
2018-Apr-20 03:30N 40°38' W 074°08'0 0.0
2018-Apr-20 03:00N 40°38' W 074°08'0 0.0
2018-Apr-20 02:30N 40°38' W 074°08'0 0.0
2018-Apr-20 01:59N 40°38' W 074°08'0 0.0
2018-Apr-20 01:30N 40°38' W 074°08'0 0.0
2018-Apr-20 01:00N 40°38' W 074°08'0 0.0
2018-Apr-20 00:30N 40°38' W 074°08'0 0.0
2018-Apr-20 00:00N 40°38' W 074°08'0 0.0
2018-Apr-19 23:30N 40°38' W 074°08'2 3.0
2018-Apr-19 22:55N 40°39' W 074°10'3 6.6
2018-Apr-19 22:30N 40°37' W 074°12'0 0.2
2018-Apr-19 21:57N 40°36' W 074°12'1 1.5
2018-Apr-19 21:30N 40°36' W 074°12'0 0.0
2018-Apr-19 21:00N 40°36' W 074°12'2 3.7
2018-Apr-19 20:30N 40°38' W 074°12'2 3.9
2018-Apr-19 20:00N 40°39' W 074°10'0 0.6
2018-Apr-19 19:30N 40°39' W 074°10'3 5.2
2018-Apr-19 18:59N 40°39' W 074°06'2 5.1
2018-Apr-19 18:30N 40°40' W 074°03'4 8.0
2018-Apr-19 18:00N 40°42' W 073°59'4 7.4
2018-Apr-19 17:30N 40°46' W 073°57'3 5.0
2018-Apr-19 16:56N 40°48' W 073°55'0 0.0
2018-Apr-19 13:20N 40°48' W 073°55'0 0.0
2018-Apr-19 13:00N 40°48' W 073°55'0 0.0
2018-Apr-19 12:30N 40°48' W 073°55'0 0.0
2018-Apr-19 11:59N 40°48' W 073°55'0 0.0
2018-Apr-19 11:30N 40°48' W 073°55'0 0.0
2018-Apr-19 11:00N 40°48' W 073°55'0 0.0
2018-Apr-19 10:30N 40°48' W 073°55'0 0.0
2018-Apr-19 10:00N 40°48' W 073°55'0 0.0
2018-Apr-19 05:29N 40°48' W 073°55'2 5.0
2018-Apr-19 05:00N 40°46' W 073°57'4 7.5
2018-Apr-19 04:30N 40°43' W 073°59'4 7.8
2018-Apr-19 04:00N 40°40' W 074°02'4 7.6
2018-Apr-19 03:30N 40°39' W 074°07'2 4.3
2018-Apr-19 03:00N 40°39' W 074°10'0 0.0
2018-Apr-19 02:30N 40°39' W 074°10'0 0.0
2018-Apr-19 02:00N 40°39' W 074°10'0 0.0
2018-Apr-19 01:30N 40°39' W 074°10'0 0.0
2018-Apr-19 01:00N 40°39' W 074°10'0 0.0
2018-Apr-19 00:30N 40°39' W 074°10'0 0.0
2018-Apr-19 00:00N 40°39' W 074°10'0 0.1
2018-Apr-18 23:30N 40°39' W 074°10'2 3.6
2018-Apr-18 23:00N 40°38' W 074°12'1 2.2
2018-Apr-18 22:30N 40°37' W 074°12'2 1.6
2018-Apr-18 21:29N 40°35' W 074°13'1 1.4
2018-Apr-18 21:00N 40°36' W 074°12'0 0.0
2018-Apr-18 20:30N 40°36' W 074°12'0 0.0
2018-Apr-18 20:00N 40°36' W 074°12'0 0.0
2018-Apr-18 19:30N 40°36' W 074°12'0 0.0
2018-Apr-18 19:00N 40°36' W 074°12'0 0.0
2018-Apr-18 18:30N 40°36' W 074°12'0 0.0
2018-Apr-18 18:00N 40°36' W 074°12'0 0.0
2018-Apr-18 17:30N 40°36' W 074°12'1 2.1
2018-Apr-18 17:00N 40°37' W 074°12'1 2.0
2018-Apr-18 16:30N 40°38' W 074°12'0 0.0
2018-Apr-18 15:58N 40°38' W 074°12'0 0.0
2018-Apr-18 15:30N 40°38' W 074°12'0 0.0
2018-Apr-18 14:58N 40°38' W 074°12'0 0.0
2018-Apr-18 14:30N 40°38' W 074°12'2 5.1
2018-Apr-18 14:00N 40°39' W 074°09'1 2.1
2018-Apr-18 13:30N 40°38' W 074°08'0 0.0
2018-Apr-18 13:00N 40°38' W 074°08'0 0.0
2018-Apr-18 12:29N 40°38' W 074°08'0 0.0
2018-Apr-18 12:00N 40°38' W 074°08'0 0.0
2018-Apr-18 11:30N 40°38' W 074°08'0 0.0
2018-Apr-18 10:58N 40°38' W 074°08'0 0.0
2018-Apr-18 10:30N 40°38' W 074°08'0 0.0
2018-Apr-18 10:00N 40°38' W 074°08'0 0.0
2018-Apr-18 09:30N 40°38' W 074°08'0 0.0
2018-Apr-18 09:00N 40°38' W 074°08'0 0.0
2018-Apr-18 08:30N 40°38' W 074°08'0 0.0
2018-Apr-18 08:00N 40°38' W 074°08'0 0.0
2018-Apr-18 07:30N 40°38' W 074°08'0 0.0
2018-Apr-18 07:00N 40°38' W 074°08'0 0.0
2018-Apr-18 06:30N 40°38' W 074°08'0 0.0
2018-Apr-18 06:00N 40°38' W 074°08'0 0.0
2018-Apr-18 05:30N 40°38' W 074°08'0 0.0
2018-Apr-18 05:00N 40°38' W 074°08'0 0.0
2018-Apr-18 04:28N 40°38' W 074°08'0 0.0
2018-Apr-18 04:00N 40°38' W 074°08'0 0.0
2018-Apr-18 03:30N 40°38' W 074°08'0 0.0
2018-Apr-18 03:00N 40°38' W 074°08'0 0.0
2018-Apr-18 02:30N 40°38' W 074°08'0 0.0
2018-Apr-18 02:00N 40°38' W 074°08'0 0.0
2018-Apr-18 01:30N 40°38' W 074°08'0 0.0
2018-Apr-18 00:59N 40°38' W 074°08'0 0.0
2018-Apr-18 00:30N 40°38' W 074°08'0 0.0
2018-Apr-18 00:00N 40°38' W 074°08'0 0.0
2018-Apr-17 23:30N 40°38' W 074°08'0 0.1
2018-Apr-17 23:00N 40°39' W 074°08'3 6.5
2018-Apr-17 22:29N 40°38' W 074°12'3 5.3
2018-Apr-17 22:00N 40°35' W 074°13'1 2.6
2018-Apr-17 21:29N 40°37' W 074°12'3 6.5
2018-Apr-17 21:00N 40°39' W 074°09'1 2.3
2018-Apr-17 20:29N 40°38' W 074°08'0 0.0
2018-Apr-17 20:00N 40°38' W 074°08'1 2.6
2018-Apr-17 19:26N 40°39' W 074°10'2 3.7
2018-Apr-17 19:00N 40°38' W 074°12'0 0.0
2018-Apr-17 18:30N 40°38' W 074°12'0 0.0
2018-Apr-17 18:00N 40°38' W 074°12'0 0.0
2018-Apr-17 17:29N 40°38' W 074°12'0 0.0
2018-Apr-17 17:00N 40°38' W 074°12'3 5.7
2018-Apr-17 16:24N 40°35' W 074°12'0 0.2
2018-Apr-17 15:56N 40°35' W 074°13'0 0.3
2018-Apr-17 15:29N 40°35' W 074°12'2 0.5
2018-Apr-17 11:58N 40°33' W 074°14'3 7.2
2018-Apr-17 11:30N 40°37' W 074°12'3 5.5
2018-Apr-17 11:00N 40°38' W 074°09'1 2.4
2018-Apr-17 10:29N 40°38' W 074°08'0 0.0
2018-Apr-17 10:00N 40°38' W 074°08'0 0.0
2018-Apr-17 09:29N 40°38' W 074°08'0 0.0
2018-Apr-17 09:00N 40°38' W 074°08'0 0.0
2018-Apr-17 08:30N 40°38' W 074°08'0 0.0
2018-Apr-17 08:00N 40°38' W 074°08'0 0.0
2018-Apr-17 07:30N 40°38' W 074°08'0 0.0
2018-Apr-17 07:00N 40°38' W 074°08'0 0.0
2018-Apr-17 06:30N 40°38' W 074°08'0 0.0
2018-Apr-17 06:00N 40°38' W 074°08'0 0.0
2018-Apr-17 05:30N 40°38' W 074°08'0 0.0
2018-Apr-17 05:00N 40°38' W 074°08'0 0.0
2018-Apr-17 04:30N 40°38' W 074°08'0 0.3
2018-Apr-17 03:58N 40°39' W 074°08'4 7.9
2018-Apr-17 03:29N 40°42' W 074°07'2 4.0
2018-Apr-17 03:00N 40°44' W 074°06'2 4.4
2018-Apr-17 02:30N 40°42' W 074°07'3 5.4
2018-Apr-17 02:00N 40°40' W 074°09'0 0.9
2018-Apr-17 01:29N 40°39' W 074°09'2 3.5
2018-Apr-17 01:00N 40°39' W 074°07'1 2.1
2018-Apr-17 00:30N 40°38' W 074°08'0 0.0
2018-Apr-16 23:59N 40°38' W 074°08'0 0.0
2018-Apr-16 23:30N 40°38' W 074°08'0 0.0
2018-Apr-16 23:00N 40°38' W 074°08'0 0.0
2018-Apr-16 22:30N 40°38' W 074°08'0 0.0
2018-Apr-16 22:00N 40°38' W 074°08'0 0.0
2018-Apr-16 21:30N 40°38' W 074°08'0 0.0
2018-Apr-16 21:00N 40°38' W 074°08'0 0.0
2018-Apr-16 20:30N 40°38' W 074°08'0 0.0
2018-Apr-16 19:59N 40°38' W 074°08'0 0.0
2018-Apr-16 19:30N 40°38' W 074°08'0 0.0
2018-Apr-16 19:00N 40°38' W 074°08'0 0.0
2018-Apr-16 18:30N 40°38' W 074°08'0 0.0
2018-Apr-16 18:00N 40°38' W 074°08'0 0.0
2018-Apr-16 17:29N 40°38' W 074°08'0 0.0
2018-Apr-16 17:00N 40°38' W 074°08'0 0.0
2018-Apr-16 16:30N 40°38' W 074°08'0 0.0
2018-Apr-16 16:00N 40°38' W 074°08'0 0.0
2018-Apr-16 15:30N 40°38' W 074°08'0 0.0
2018-Apr-16 15:00N 40°38' W 074°08'0 0.0
2018-Apr-16 14:30N 40°38' W 074°08'0 0.0
2018-Apr-16 14:00N 40°38' W 074°08'0 0.0
2018-Apr-16 13:30N 40°38' W 074°08'1 1.6
2018-Apr-16 12:59N 40°39' W 074°09'1 2.3
2018-Apr-16 12:30N 40°39' W 074°10'0 0.2
2018-Apr-16 11:58N 40°39' W 074°10'0 0.0
2018-Apr-16 11:30N 40°39' W 074°10'0 0.0
2018-Apr-16 11:00N 40°39' W 074°10'0 0.0
2018-Apr-16 10:30N 40°39' W 074°10'1 1.6
2018-Apr-16 10:00N 40°38' W 074°09'3 6.8
2018-Apr-16 09:30N 40°39' W 074°04'2 3.7
2018-Apr-16 09:00N 40°37' W 074°03'0 0.0
2018-Apr-16 08:30N 40°37' W 074°03'0 0.0
2018-Apr-16 08:00N 40°37' W 074°03'0 0.0
2018-Apr-16 07:30N 40°37' W 074°03'0 0.0
2018-Apr-16 07:00N 40°37' W 074°03'0 0.0
2018-Apr-16 06:30N 40°37' W 074°03'0 0.0
2018-Apr-16 06:00N 40°37' W 074°03'0 0.0
2018-Apr-16 05:30N 40°37' W 074°03'0 0.1
2018-Apr-16 05:00N 40°37' W 074°04'0 0.0
2018-Apr-16 04:30N 40°37' W 074°04'0 0.0
2018-Apr-16 04:00N 40°37' W 074°04'0 0.1
2018-Apr-16 03:30N 40°37' W 074°04'0 0.1
2018-Apr-16 03:00N 40°37' W 074°04'0 0.2
2018-Apr-16 02:30N 40°38' W 074°03'0 0.0
2018-Apr-16 02:00N 40°38' W 074°03'0 0.0
2018-Apr-16 01:28N 40°38' W 074°03'0 0.0
2018-Apr-16 01:00N 40°38' W 074°03'0 0.0
2018-Apr-16 00:30N 40°38' W 074°04'0 0.0
2018-Apr-16 00:00N 40°38' W 074°04'0 0.0
2018-Apr-15 23:30N 40°38' W 074°04'0 0.0
2018-Apr-15 23:00N 40°38' W 074°04'0 0.1
2018-Apr-15 22:29N 40°38' W 074°03'0 0.1
2018-Apr-15 22:00N 40°38' W 074°04'0 0.1
2018-Apr-15 21:30N 40°37' W 074°04'0 0.3
2018-Apr-15 21:00N 40°37' W 074°03'0 0.0
2018-Apr-15 20:30N 40°37' W 074°03'0 0.0
2018-Apr-15 20:00N 40°37' W 074°04'0 0.0
2018-Apr-15 19:30N 40°37' W 074°03'0 0.0
2018-Apr-15 19:00N 40°37' W 074°03'0 0.0
2018-Apr-15 18:30N 40°37' W 074°03'0 0.1
2018-Apr-15 18:00N 40°37' W 074°03'0 0.0
2018-Apr-15 17:30N 40°37' W 074°03'0 0.5
2018-Apr-15 17:00N 40°38' W 074°04'4 6.5
2018-Apr-15 16:26N 40°39' W 074°08'3 5.9
2018-Apr-15 16:00N 40°41' W 074°08'1 2.5
2018-Apr-15 15:30N 40°42' W 074°07'0 0.3
2018-Apr-15 14:59N 40°42' W 074°07'2 3.7
2018-Apr-15 14:30N 40°44' W 074°06'2 3.9
2018-Apr-15 14:00N 40°42' W 074°07'3 5.4
2018-Apr-15 13:30N 40°40' W 074°08'1 2.7
2018-Apr-15 13:00N 40°38' W 074°08'0 0.0
2018-Apr-15 12:30N 40°38' W 074°08'0 0.0
2018-Apr-15 12:00N 40°38' W 074°08'0 0.0
2018-Apr-15 11:30N 40°38' W 074°08'0 0.0
2018-Apr-15 11:00N 40°38' W 074°08'0 0.0
2018-Apr-15 10:30N 40°38' W 074°08'0 0.0
2018-Apr-15 10:00N 40°38' W 074°08'0 0.0
2018-Apr-15 09:30N 40°38' W 074°08'0 0.0
2018-Apr-15 09:00N 40°38' W 074°08'0 0.0
2018-Apr-15 08:30N 40°38' W 074°08'0 0.0
2018-Apr-15 08:00N 40°38' W 074°08'0 0.0
2018-Apr-15 07:30N 40°38' W 074°08'0 0.0
2018-Apr-15 07:00N 40°38' W 074°08'0 0.0
2018-Apr-15 06:30N 40°38' W 074°08'0 0.0
2018-Apr-15 06:00N 40°38' W 074°08'0 0.0
2018-Apr-15 05:30N 40°38' W 074°08'0 0.0
2018-Apr-15 05:00N 40°38' W 074°08'0 0.0
2018-Apr-15 04:30N 40°38' W 074°08'0 0.0
2018-Apr-15 04:00N 40°38' W 074°08'0 0.0
2018-Apr-15 03:28N 40°38' W 074°08'0 0.0
2018-Apr-15 03:00N 40°38' W 074°08'0 0.0
2018-Apr-15 02:30N 40°38' W 074°08'0 0.0
2018-Apr-15 02:00N 40°38' W 074°08'0 0.0
2018-Apr-15 01:28N 40°38' W 074°08'0 0.0
2018-Apr-15 01:00N 40°38' W 074°08'0 0.0
2018-Apr-15 00:28N 40°38' W 074°08'0 0.0
2018-Apr-15 00:00N 40°38' W 074°08'2 4.5
2018-Apr-14 23:30N 40°39' W 074°05'2 4.6
2018-Apr-14 23:00N 40°38' W 074°08'0 0.0
2018-Apr-14 22:29N 40°38' W 074°08'0 0.0
2018-Apr-14 22:00N 40°38' W 074°08'0 0.0
2018-Apr-14 21:29N 40°38' W 074°08'0 0.0
2018-Apr-14 20:58N 40°38' W 074°08'0 0.0
2018-Apr-14 20:29N 40°38' W 074°08'0 0.0
2018-Apr-14 20:00N 40°38' W 074°08'0 0.0
2018-Apr-14 19:26N 40°38' W 074°08'0 0.0
2018-Apr-14 19:00N 40°38' W 074°08'0 0.0
2018-Apr-14 18:29N 40°38' W 074°08'0 0.0
2018-Apr-14 18:00N 40°38' W 074°08'0 0.0
2018-Apr-14 17:30N 40°38' W 074°08'0 0.0
2018-Apr-14 17:00N 40°38' W 074°08'0 0.0
2018-Apr-14 16:30N 40°38' W 074°08'0 0.0
2018-Apr-14 16:00N 40°38' W 074°08'0 0.0
2018-Apr-14 15:30N 40°38' W 074°08'0 0.0
2018-Apr-14 14:59N 40°38' W 074°08'0 0.0
2018-Apr-14 14:29N 40°38' W 074°08'0 0.0
2018-Apr-14 13:59N 40°38' W 074°08'0 0.3
2018-Apr-14 13:30N 40°39' W 074°08'4 7.2
2018-Apr-14 13:00N 40°40' W 074°03'4 7.7
2018-Apr-14 12:30N 40°43' W 074°01'3 5.7
2018-Apr-14 12:00N 40°46' W 074°00'0 0.7
2018-Apr-14 11:30N 40°46' W 073°60'0 0.6
2018-Apr-14 11:00N 40°47' W 073°60'2 3.7
2018-Apr-14 10:30N 40°45' W 074°01'4 8.4
2018-Apr-14 10:00N 40°41' W 074°02'4 7.1
2018-Apr-14 09:26N 40°39' W 074°07'1 2.0
2018-Apr-14 09:00N 40°38' W 074°08'0 0.0
2018-Apr-14 08:30N 40°38' W 074°08'0 0.0
2018-Apr-14 08:00N 40°38' W 074°08'0 0.0
2018-Apr-14 07:30N 40°38' W 074°08'0 0.0
2018-Apr-14 07:00N 40°38' W 074°08'  

Dump ship's entire track history